This is the latest recevied weather packets stored in our database for station/object IK4PKL-13. If no packets are shown the sender has not sent any weather packets the latest 10 day(s).
| Time | Temp. | Humidity | Pressure | Rain* | Wind** | Luminosity | Snow |
|---|---|---|---|---|---|---|---|
| 1777490129 | 18.33° C | 84% | 1020.1 hPa | 0 mm | - | 0 W/m² | - |
| 1777486567 | 18.89° C | 82% | 1019.5 hPa | 0 mm | - | 1 W/m² | - |
| 1777484722 | 18.89° C | 82% | 1018.9 hPa | 0 mm | - | 11 W/m² | - |
| 1777481732 | 19.44° C | 81% | 1018.8 hPa | 0 mm | - | 46 W/m² | - |
| 1777468570 | 21.67° C | 72% | 1018.8 hPa | 0 mm | - | 538 W/m² | - |
| 1777467921 | 21.11° C | 72% | 1018.9 hPa | 0 mm | - | 543 W/m² | - |
| 1777455330 | 20.56° C | 73% | 1019.2 hPa | 0 mm | - | 492 W/m² | - |
| 1777450531 | 20° C | 73% | 1019.1 hPa | 0 mm | - | 162 W/m² | - |
| 1777446963 | 19.44° C | 77% | 1018.9 hPa | 0 mm | - | 304 W/m² | - |
| 1777442145 | 15.56° C | 81% | 1018.7 hPa | 0 mm | - | 90 W/m² | - |
| 1777439764 | 14.44° C | 81% | 1018.6 hPa | 0 mm | - | 57 W/m² | - |
| 1777437345 | 12.78° C | 85% | 1018.6 hPa | 0 mm | - | 15 W/m² | - |
| 1777433745 | 13.33° C | 84% | 1018.1 hPa | 0 mm | - | 0 W/m² | - |
| 1777433121 | 13.33° C | 83% | 1018.2 hPa | 0 mm | - | 0 W/m² | - |
| 1777432571 | 13.89° C | 83% | 1018.1 hPa | 0 mm | - | 0 W/m² | - |
| 1777431328 | 13.89° C | 83% | 1018.2 hPa | 0 mm | - | 0 W/m² | - |
| 1777430145 | 13.33° C | 85% | 1018.1 hPa | 0 mm | - | 0 W/m² | - |
| 1777429537 | 13.33° C | 86% | 1018.1 hPa | 0 mm | - | 0 W/m² | - |
| 1777425346 | 13.89° C | 87% | 1017.8 hPa | 0 mm | - | 0 W/m² | - |
| 1777420545 | 14.44° C | 90% | 1017.8 hPa | 0 mm | - | 0 W/m² | - |
| 1777416321 | 15° C | 91% | 1018 hPa | 0 mm | - | 0 W/m² | - |
| 1777411521 | 15.56° C | 91% | 1017.9 hPa | 0 mm | - | 0 W/m² | - |
| 1777409729 | 16.11° C | 89% | 1017.9 hPa | 0 mm | - | 0 W/m² | - |
| 1777405536 | 17.78° C | 88% | 1017.8 hPa | 0 mm | - | 0 W/m² | - |
| 1777398985 | 19.44° C | 78% | 1017 hPa | 0 mm | - | 8 W/m² | - |
* Rain latest hour (hover to see other rain measurements)
** Current wind speed in m/s (hover to see current wind gust speed)